Time;durP1;ratioP1;P1;durP2;ratioP2;P2;SDS_P1;SDS_P2;PMS_P1;PMS_P2;Temp;Humidity;BMP_temperature;BMP_pressure;BME280_temperature;BME280_humidity;BME280_pressure;Samples;Min_cycle;Max_cycle;Signal;HPM_P1;HPM_P2
2022/01/12 00:00:32;;;;;;;10.48;6.38;;;;;;;-5.03;100.00;93439.47;5048859;28;20072;-86
2022/01/12 00:02:59;;;;;;;9.00;5.55;;;;;;;-5.23;100.00;93413.34;5049968;28;20143;-86
2022/01/12 00:05:26;;;;;;;10.05;6.07;;;;;;;-4.99;100.00;93457.59;5053177;28;20878;-85
2022/01/12 00:07:54;;;;;;;9.98;5.80;;;;;;;-4.98;100.00;93457.47;5053205;28;20075;-86
2022/01/12 00:10:22;;;;;;;11.05;6.32;;;;;;;-5.15;100.00;93425.28;5053707;28;20041;-86
2022/01/12 00:12:48;;;;;;;11.70;6.85;;;;;;;-5.01;100.00;93460.19;5053035;28;20056;-85
2022/01/12 00:15:16;;;;;;;11.38;6.40;;;;;;;-4.99;100.00;93445.06;5053305;28;20045;-85
2022/01/12 00:17:45;;;;;;;9.73;6.53;;;;;;;-5.00;100.00;93446.75;5052963;28;20549;-85
2022/01/12 00:20:14;;;;;;;9.00;5.68;;;;;;;-4.98;100.00;93459.19;5053085;28;20549;-87
2022/01/12 00:22:43;;;;;;;11.60;6.80;;;;;;;-5.03;100.00;93472.03;5052901;28;20495;-86
2022/01/12 00:25:25;;;;;;;10.10;6.75;;;;;;;-5.15;100.00;93453.66;5052779;28;20415;-87
2022/01/12 00:33:23;;;;;;;10.23;5.78;;;;;;;-5.28;100.00;93466.22;5052808;28;20068;-86
2022/01/12 00:35:52;;;;;;;12.85;7.28;;;;;;;-5.11;100.00;93470.06;5052644;28;20521;-85
2022/01/12 00:38:21;;;;;;;9.00;5.95;;;;;;;-5.26;100.00;93451.91;5052627;28;20057;-83
2022/01/12 00:40:49;;;;;;;12.05;7.50;;;;;;;-5.08;100.00;93466.56;5052559;28;20072;-86
2022/01/12 00:43:17;;;;;;;9.93;6.10;;;;;;;-5.52;100.00;93419.47;5052800;28;20100;-86
2022/01/12 00:45:46;;;;;;;12.60;6.93;;;;;;;-5.27;100.00;93464.53;5052483;28;20053;-85
2022/01/12 00:48:13;;;;;;;10.30;6.03;;;;;;;-5.14;100.00;93464.50;5052322;28;20045;-86
2022/01/12 00:50:42;;;;;;;10.70;6.40;;;;;;;-5.13;100.00;93468.59;5052640;28;20118;-84
2022/01/12 00:53:14;;;;;;;11.43;6.13;;;;;;;-5.15;100.00;93480.41;5052339;28;20392;-85
2022/01/12 00:55:41;;;;;;;9.73;6.22;;;;;;;-5.14;100.00;93482.03;5052377;28;20053;-86
2022/01/12 00:58:07;;;;;;;10.05;6.38;;;;;;;-5.20;100.00;93488.25;5052748;28;20568;-86
2022/01/12 01:00:35;;;;;;;12.05;7.60;;;;;;;-5.20;100.00;93478.22;5052214;28;20048;-85
2022/01/12 01:03:02;;;;;;;11.02;6.57;;;;;;;-5.28;100.00;93457.94;5052058;28;20057;-87
2022/01/12 01:05:32;;;;;;;9.73;6.28;;;;;;;-5.23;100.00;93445.91;5051932;28;20052;-83
2022/01/12 01:08:01;;;;;;;9.95;6.38;;;;;;;-5.14;100.00;93461.97;5052212;28;20099;-87
2022/01/12 01:10:41;;;;;;;10.32;6.65;;;;;;;-5.13;100.00;93461.06;5051555;28;20804;-84
2022/01/12 01:13:08;;;;;;;9.88;6.13;;;;;;;-5.15;100.00;93472.88;5052429;28;20084;-83
2022/01/12 01:26:36;;;;;;;11.85;6.80;;;;;;;-5.18;100.00;93463.09;5052284;28;20067;-87
2022/01/12 01:29:04;;;;;;;9.75;5.25;;;;;;;-5.29;100.00;93448.81;5051796;28;20045;-82
2022/01/12 01:31:33;;;;;;;9.38;5.85;;;;;;;-5.18;100.00;93466.41;5051735;28;20049;-84
2022/01/12 01:34:06;;;;;;;11.50;6.68;;;;;;;-5.18;100.00;93466.41;5051452;28;20099;-83
2022/01/12 01:36:35;;;;;;;9.38;5.97;;;;;;;-5.18;100.00;93468.09;5051711;28;20073;-85
2022/01/12 01:39:07;;;;;;;10.65;6.38;;;;;;;-5.19;100.00;93471.53;5051708;28;20053;-83
2022/01/12 01:41:35;;;;;;;10.32;6.15;;;;;;;-5.32;100.00;93464.06;5051517;28;20068;-84
2022/01/12 01:55:09;;;;;;;9.38;5.40;;;;;;;-5.25;100.00;93472.72;5051291;28;20087;-84
2022/01/12 01:57:36;;;;;;;10.50;6.20;;;;;;;-5.23;100.00;93464.22;5051138;28;20454;-86
2022/01/12 02:00:07;;;;;;;8.85;5.63;;;;;;;-5.29;100.00;93463.84;5051118;28;20045;-84
2022/01/12 02:02:34;;;;;;;9.52;5.63;;;;;;;-5.28;100.00;93486.28;5051029;28;20118;-85
2022/01/12 02:05:01;;;;;;;8.63;5.45;;;;;;;-5.28;100.00;93482.97;5051064;28;20052;-85
2022/01/12 02:07:28;;;;;;;9.00;5.47;;;;;;;-5.28;100.00;93482.97;5051230;28;20052;-83
2022/01/12 02:09:55;;;;;;;10.70;5.75;;;;;;;-5.27;100.00;93489.59;5051151;28;20098;-84
2022/01/12 02:12:30;;;;;;;11.13;6.15;;;;;;;-5.31;100.00;93488.19;5050556;28;20135;-85
2022/01/12 02:15:00;;;;;;;10.27;6.60;;;;;;;-5.28;100.00;93493.78;5050420;28;20048;-86
2022/01/12 02:17:32;;;;;;;8.82;5.30;;;;;;;-5.34;100.00;93490.91;5050395;28;20045;-86
2022/01/12 02:20:23;;;;;;;9.52;5.78;;;;;;;-5.46;100.00;93485.03;5048272;28;20049;-83
2022/01/12 02:36:34;;;;;;;11.50;6.43;;;;;;;-5.42;100.00;93519.00;5022629;28;20405;-85
2022/01/12 02:41:54;;;;;;;8.93;5.78;;;;;;;-5.40;100.00;93520.47;5020982;28;20053;-86
2022/01/12 02:55:20;;;;;;;9.50;6.07;;;;;;;-5.45;100.00;93544.22;5045696;28;20102;-86
2022/01/12 02:57:47;;;;;;;10.88;6.13;;;;;;;-5.47;100.00;93551.81;5046070;28;20048;-83
2022/01/12 03:00:17;;;;;;;10.43;6.05;;;;;;;-5.47;100.00;93551.81;5046125;28;20053;-85
2022/01/12 03:02:50;;;;;;;10.98;6.57;;;;;;;-5.56;100.00;93534.94;5045640;28;20061;-85
2022/01/12 03:08:09;;;;;;;7.97;5.35;;;;;;;-5.47;100.00;93549.31;5045790;28;20060;-85
2022/01/12 03:10:37;;;;;;;11.10;6.43;;;;;;;-5.45;100.00;93555.03;5048494;28;20049;-85
2022/01/12 03:13:04;;;;;;;8.95;5.50;;;;;;;-5.44;100.00;93564.16;5048083;28;20094;-84
2022/01/12 03:15:38;;;;;;;9.15;5.60;;;;;;;-5.47;100.00;93554.31;5049144;28;20045;-86
2022/01/12 03:18:12;;;;;;;10.40;5.78;;;;;;;-5.45;100.00;93557.53;5049372;28;20240;-84
2022/01/12 03:20:40;;;;;;;8.40;5.00;;;;;;;-5.56;100.00;93557.47;5030545;28;20045;-85
2022/01/12 03:23:07;;;;;;;10.35;6.38;;;;;;;-5.68;100.00;93562.41;5030374;28;20060;-84
2022/01/12 03:25:34;;;;;;;9.40;5.95;;;;;;;-5.63;100.00;93622.16;5043766;28;20499;-84
2022/01/12 03:28:04;;;;;;;10.95;5.72;;;;;;;-5.57;100.00;93569.19;5047775;28;20041;-87
2022/01/12 03:30:37;;;;;;;16.13;8.20;;;;;;;-5.54;100.00;93580.69;5047073;28;20043;-85
2022/01/12 03:33:10;;;;;;;17.13;9.02;;;;;;;-5.60;100.00;93579.38;5050903;28;20049;-86
2022/01/12 04:08:39;;;;;;;11.23;6.90;;;;;;;-5.69;100.00;93628.34;5052491;28;20419;-86
2022/01/12 04:11:06;;;;;;;11.77;7.25;;;;;;;-5.64;100.00;93630.56;5052799;28;20045;-87
2022/01/12 04:13:33;;;;;;;10.48;6.85;;;;;;;-5.68;100.00;93642.47;5052674;28;20044;-85
2022/01/12 04:16:01;;;;;;;12.30;7.22;;;;;;;-5.67;100.00;93645.75;5052544;28;20140;-85
2022/01/12 04:18:30;;;;;;;11.63;7.20;;;;;;;-5.79;100.00;93627.38;5052683;28;20048;-85
2022/01/12 04:21:02;;;;;;;11.60;7.15;;;;;;;-5.69;100.00;93652.59;5053248;28;20111;-84
2022/01/12 04:23:32;;;;;;;10.05;6.50;;;;;;;-5.69;100.00;93635.06;5053100;28;20071;-86
2022/01/12 04:26:01;;;;;;;13.32;6.68;;;;;;;-5.63;100.00;93647.16;5053092;28;20048;-86
2022/01/12 04:28:30;;;;;;;11.73;6.90;;;;;;;-5.63;100.00;93647.16;5052915;28;20053;-86
2022/01/12 04:30:58;;;;;;;12.00;6.68;;;;;;;-5.62;100.00;93656.28;5052654;28;20056;-86
2022/01/12 04:33:25;;;;;;;11.95;7.82;;;;;;;-5.57;100.00;93661.78;5052985;28;20048;-86
2022/01/12 04:35:55;;;;;;;12.30;7.18;;;;;;;-5.59;100.00;93653.59;5052762;28;20495;-86
2022/01/12 04:38:25;;;;;;;19.40;10.15;;;;;;;-5.56;100.00;93662.59;5052645;28;20095;-86
2022/01/12 04:40:54;;;;;;;17.35;9.82;;;;;;;-5.60;100.00;93668.69;5052801;28;20045;-86
2022/01/12 04:43:24;;;;;;;15.73;8.95;;;;;;;-5.60;100.00;93679.50;5050699;28;20048;-87
2022/01/12 04:46:23;;;;;;;12.50;7.82;;;;;;;-5.90;100.00;93643.88;5051636;28;20411;-85
2022/01/12 04:48:54;;;;;;;14.15;8.73;;;;;;;-5.61;100.00;93684.63;5052641;28;20053;-85
2022/01/12 04:51:22;;;;;;;19.63;9.45;;;;;;;-5.55;100.00;93685.00;5052610;28;20450;-87
2022/01/12 04:53:50;;;;;;;18.77;8.95;;;;;;;-5.57;100.00;93681.00;5052386;28;20045;-86
2022/01/12 04:56:17;;;;;;;12.75;7.07;;;;;;;-5.58;100.00;93679.41;5052603;28;21087;-87
2022/01/12 04:58:44;;;;;;;10.60;6.70;;;;;;;-5.63;100.00;93689.72;5052614;28;20443;-87
2022/01/12 05:01:21;;;;;;;25.30;10.50;;;;;;;-5.61;100.00;93699.63;5052602;28;20053;-86
2022/01/12 05:06:46;;;;;;;13.35;8.23;;;;;;;-5.58;100.00;93697.72;5052172;28;20060;-87
2022/01/12 05:09:42;;;;;;;51.95;17.15;;;;;;;-5.46;100.00;93697.84;5052361;28;20049;-87
2022/01/12 05:15:11;;;;;;;47.25;17.35;;;;;;;-5.63;100.00;93698.03;5052049;28;20060;-87
2022/01/12 05:17:38;;;;;;;16.90;9.57;;;;;;;-5.70;100.00;93699.31;5051830;28;20507;-86
2022/01/12 05:20:06;;;;;;;14.95;7.35;;;;;;;-5.76;100.00;93702.22;5052088;28;20049;-83
2022/01/12 05:22:34;;;;;;;13.40;8.68;;;;;;;-6.42;100.00;93599.69;5051767;28;20499;-86
2022/01/12 05:25:08;;;;;;;19.48;11.05;;;;;;;-5.85;100.00;93697.78;5051821;28;20080;-86
2022/01/12 05:27:37;;;;;;;38.00;17.60;;;;;;;-5.65;100.00;93734.88;5051769;28;20048;-86
2022/01/12 05:30:06;;;;;;;28.65;14.25;;;;;;;-5.90;100.00;93691.41;5052024;28;20136;-86
2022/01/12 05:32:35;;;;;;;21.67;10.95;;;;;;;-5.70;100.00;93726.84;5051521;28;20478;-85
2022/01/12 05:35:06;;;;;;;26.20;14.57;;;;;;;-5.70;100.00;93736.06;5051673;28;20446;-87
2022/01/12 05:37:35;;;;;;;11.38;7.43;;;;;;;-5.74;100.00;93729.66;5051548;28;20041;-86
2022/01/12 05:40:06;;;;;;;16.73;8.98;;;;;;;-5.67;100.00;93736.66;5051529;28;20058;-87
2022/01/12 05:42:33;;;;;;;17.67;9.90;;;;;;;-5.61;100.00;93744.69;5051661;28;20412;-86
2022/01/12 05:45:08;;;;;;;12.70;8.02;;;;;;;-5.63;100.00;93740.59;5051564;28;20412;-86
2022/01/12 05:49:33;;;;;;;;;;;;;;;-5.56;100.00;93743.47;5051835;28;20438;-88
2022/01/12 05:50:33;;;;;;;13.65;8.77;;;;;;;-5.65;100.00;93749.88;5051150;28;19924;-87
2022/01/12 05:53:00;;;;;;;14.50;8.93;;;;;;;-5.75;100.00;93756.38;5051442;28;20136;-87
2022/01/12 05:55:31;;;;;;;13.98;8.68;;;;;;;-5.65;100.00;93757.38;5051237;28;20041;-87
2022/01/12 05:57:59;;;;;;;13.60;7.97;;;;;;;-6.09;100.00;93700.97;5051261;28;20056;-86
2022/01/12 06:00:28;;;;;;;10.27;6.07;;;;;;;-5.86;100.00;93754.56;5051703;28;20045;-86
2022/01/12 06:02:55;;;;;;;12.77;8.23;;;;;;;-5.80;100.00;93756.66;5050298;28;20040;-86
2022/01/12 06:05:28;;;;;;;24.98;9.82;;;;;;;-5.78;100.00;93779.09;5051008;28;20486;-86
2022/01/12 06:07:55;;;;;;;14.65;8.32;;;;;;;-5.80;100.00;93773.38;5050961;28;20134;-86
2022/01/12 06:10:35;;;;;;;18.23;9.65;;;;;;;-5.83;100.00;93778.56;5051047;28;20423;-86
2022/01/12 06:13:05;;;;;;;18.38;9.60;;;;;;;-5.75;100.00;93783.09;5051289;28;20045;-88
2022/01/12 06:15:32;;;;;;;25.88;10.68;;;;;;;-5.74;100.00;93782.19;5050963;28;20051;-85
2022/01/12 06:17:59;;;;;;;23.00;12.60;;;;;;;-5.88;100.00;93791.34;5051184;28;20148;-86
2022/01/12 06:20:26;;;;;;;27.98;15.43;;;;;;;-5.91;100.00;93789.88;5055514;28;20443;-88
2022/01/12 06:22:56;;;;;;;30.05;16.48;;;;;;;-5.96;100.00;93783.53;5050873;28;20057;-87
2022/01/12 06:25:27;;;;;;;27.73;12.73;;;;;;;-5.87;100.00;93795.47;5050988;28;20045;-87
2022/01/12 06:28:22;;;;;;;33.42;12.57;;;;;;;-5.90;100.00;93798.16;5050643;28;20049;-88
2022/01/12 06:33:43;;;;;;;74.75;21.52;;;;;;;-5.77;100.00;93814.03;5050722;28;20423;-87
2022/01/12 06:36:13;;;;;;;13.27;7.03;;;;;;;-5.85;100.00;93815.38;5050567;28;20048;-87
2022/01/12 06:38:40;;;;;;;19.20;10.68;;;;;;;-5.88;100.00;93815.59;5050858;28;20077;-85
2022/01/12 06:41:09;;;;;;;42.95;17.67;;;;;;;-5.99;100.00;93798.72;5050532;28;20053;-87
2022/01/12 06:43:37;;;;;;;23.50;12.38;;;;;;;-6.00;100.00;93802.13;5050643;28;20496;-87
2022/01/12 06:46:05;;;;;;;18.20;9.40;;;;;;;-5.93;100.00;93821.66;5050610;28;20500;-87
2022/01/12 06:48:34;;;;;;;16.88;8.90;;;;;;;-5.84;100.00;93814.50;5050357;28;20495;-87
2022/01/12 06:51:02;;;;;;;18.63;10.52;;;;;;;-5.95;100.00;93817.66;5050716;28;20052;-87
2022/01/12 06:53:29;;;;;;;23.80;11.32;;;;;;;-5.91;100.00;93852.41;5050752;28;20045;-85
2022/01/12 06:55:55;;;;;;;28.60;15.32;;;;;;;-5.83;100.00;93831.91;5050732;28;20091;-87
2022/01/12 06:58:24;;;;;;;17.70;10.00;;;;;;;-5.73;100.00;93833.84;5050419;28;20530;-87
2022/01/12 07:00:52;;;;;;;14.65;9.00;;;;;;;-5.68;100.00;93839.38;5050523;28;20518;-87
2022/01/12 07:03:19;;;;;;;15.80;9.90;;;;;;;-5.71;100.00;93847.88;5050397;28;20049;-87
2022/01/12 07:05:46;;;;;;;14.45;8.40;;;;;;;-5.77;100.00;93840.75;5050451;28;20061;-86
2022/01/12 07:08:13;;;;;;;12.23;7.68;;;;;;;-5.81;100.00;93851.84;5051919;28;20049;-84
2022/01/12 07:10:41;;;;;;;14.80;8.63;;;;;;;-5.77;100.00;93841.56;5054289;28;20048;-87
2022/01/12 07:13:10;;;;;;;9.90;6.32;;;;;;;-5.72;100.00;93850.47;5054393;28;20049;-85
2022/01/12 07:15:39;;;;;;;13.10;8.05;;;;;;;-5.74;100.00;93839.75;5054148;28;20492;-85
2022/01/12 07:18:09;;;;;;;13.60;8.15;;;;;;;-5.74;100.00;93854.78;5054333;28;20048;-84
2022/01/12 07:20:36;;;;;;;11.20;6.82;;;;;;;-5.66;100.00;93865.91;5054411;28;20049;-85
2022/01/12 07:23:04;;;;;;;22.27;13.05;;;;;;;-5.69;100.00;93868.59;5054112;28;20147;-87
2022/01/12 07:25:33;;;;;;;19.35;11.32;;;;;;;-5.55;100.00;93867.75;5054299;28;20056;-87
2022/01/12 07:28:02;;;;;;;20.90;14.55;;;;;;;-5.58;100.00;93869.63;5053976;28;20491;-86
2022/01/12 07:30:31;;;;;;;18.27;12.80;;;;;;;-5.44;100.00;93878.78;5054245;28;20453;-87
2022/01/12 07:32:58;;;;;;;19.17;12.45;;;;;;;-5.36;100.00;93891.66;5053943;28;20048;-87
2022/01/12 07:35:26;;;;;;;13.07;8.07;;;;;;;-5.58;100.00;93885.47;5052198;28;20491;-86
2022/01/12 07:37:53;;;;;;;15.88;9.85;;;;;;;-5.40;100.00;93891.03;5054056;28;20114;-86
2022/01/12 07:40:20;;;;;;;12.25;8.32;;;;;;;-5.44;100.00;93887.13;5053953;28;20114;-87
2022/01/12 07:42:47;;;;;;;13.80;9.15;;;;;;;-5.27;100.00;93890.28;5054016;28;20111;-87
2022/01/12 07:45:14;;;;;;;14.30;9.00;;;;;;;-5.48;100.00;93882.41;5053623;28;20057;-86
2022/01/12 07:47:41;;;;;;;13.40;8.85;;;;;;;-5.31;100.00;93889.66;5053782;28;20094;-85
2022/01/12 07:50:12;;;;;;;12.93;7.40;;;;;;;-5.28;100.00;93881.94;5053754;28;20106;-86
2022/01/12 07:52:53;;;;;;;11.40;7.88;;;;;;;-5.36;100.00;93862.38;5053950;28;20059;-88
2022/01/12 07:55:22;;;;;;;11.52;7.15;;;;;;;-5.42;100.00;93892.03;5053476;28;20140;-84
2022/01/12 07:57:57;;;;;;;15.43;10.48;;;;;;;-5.41;100.00;93883.63;5053427;28;20064;-88
2022/01/12 08:00:24;;;;;;;13.77;8.75;;;;;;;-5.37;100.00;93888.34;5053395;28;20094;-87
2022/01/12 08:02:53;;;;;;;13.13;8.27;;;;;;;-5.25;100.00;93901.78;5053183;28;20041;-88
2022/01/12 08:05:21;;;;;;;12.18;6.95;;;;;;;-5.33;100.00;93903.19;5053393;28;20534;-88
2022/01/12 08:07:59;;;;;;;13.98;9.75;;;;;;;-5.05;100.00;93909.75;5052983;28;20053;-90
2022/01/12 08:10:26;;;;;;;14.48;9.50;;;;;;;-5.19;100.00;93928.16;5053260;28;20492;-85
2022/01/12 08:12:53;;;;;;;15.60;9.73;;;;;;;-5.10;100.00;93926.75;5052890;28;20499;-88
2022/01/12 08:15:19;;;;;;;16.83;9.82;;;;;;;-5.16;100.00;93925.47;5053060;28;20496;-86
2022/01/12 08:17:48;;;;;;;17.50;10.98;;;;;;;-4.98;100.00;93946.06;5053001;28;20523;-88
2022/01/12 08:20:21;;;;;;;18.23;11.10;;;;;;;-4.79;100.00;93941.56;5051637;28;20045;-87
2022/01/12 08:22:50;;;;;;;19.52;12.23;;;;;;;-4.95;100.00;93952.59;5053164;28;20047;-85
2022/01/12 08:25:19;;;;;;;13.48;8.05;;;;;;;-5.14;100.00;93928.66;5053153;28;20431;-87
2022/01/12 08:27:46;;;;;;;16.17;10.57;;;;;;;-4.87;100.00;93949.56;5052860;28;20055;-86
2022/01/12 08:30:18;;;;;;;15.27;7.75;;;;;;;-4.66;100.00;93952.44;5052847;28;20539;-85
2022/01/12 08:32:47;;;;;;;16.55;10.75;;;;;;;-4.40;100.00;93959.16;5052664;28;20415;-86
2022/01/12 08:35:16;;;;;;;11.20;6.60;;;;;;;-4.60;100.00;93959.53;5052682;28;20052;-85
2022/01/12 08:37:58;;;;;;;12.07;7.32;;;;;;;-4.61;100.00;93962.97;5052743;28;20059;-89
2022/01/12 08:40:31;;;;;;;14.02;8.77;;;;;;;-4.63;100.00;93966.47;5052605;28;20124;-85
2022/01/12 08:42:58;;;;;;;11.98;7.40;;;;;;;-4.47;100.00;93963.75;5052599;28;20056;-86
2022/01/12 08:45:27;;;;;;;9.52;6.03;;;;;;;-4.68;100.00;93974.25;5052687;28;20053;-87
2022/01/12 08:47:57;;;;;;;11.77;6.97;;;;;;;-4.84;100.00;93930.16;5052665;28;20045;-88
2022/01/12 08:50:28;;;;;;;11.20;6.38;;;;;;;-4.80;100.00;93977.56;5052902;28;20049;-88
2022/01/12 08:53:06;;;;;;;28.98;19.25;;;;;;;-5.11;100.00;93920.16;5052468;28;20076;-87
2022/01/12 08:55:36;;;;;;;10.60;5.80;;;;;;;-4.91;100.00;93970.72;5052270;28;20049;-87
2022/01/12 08:58:04;;;;;;;20.73;10.55;;;;;;;-5.04;100.00;93963.97;5052378;28;20053;-87
2022/01/12 09:00:32;;;;;;;22.48;11.93;;;;;;;-5.16;100.00;93960.53;5052289;28;20045;-86
2022/01/12 09:02:59;;;;;;;17.92;10.65;;;;;;;-5.12;100.00;93971.16;5052388;28;20444;-86
2022/01/12 09:05:26;;;;;;;9.50;5.57;;;;;;;-5.17;100.00;93935.56;5052117;28;20053;-85
2022/01/12 09:07:55;;;;;;;24.23;13.25;;;;;;;-5.16;100.00;93972.25;5052232;28;20052;-85
2022/01/12 09:10:23;;;;;;;24.50;13.50;;;;;;;-4.89;100.00;93962.22;5052016;28;20045;-86
2022/01/12 09:12:51;;;;;;;130.70;64.82;;;;;;;-5.01;100.00;93960.47;5052071;28;20053;-86
2022/01/12 09:15:22;;;;;;;217.55;83.13;;;;;;;-5.10;100.00;93964.34;5052160;28;20048;-84
2022/01/12 09:17:50;;;;;;;22.33;11.40;;;;;;;-5.03;100.00;93950.56;5052291;28;20049;-88
2022/01/12 09:20:32;;;;;;;65.90;27.17;;;;;;;-4.86;100.00;93961.22;5051925;28;20048;-87
2022/01/12 09:23:02;;;;;;;49.10;27.20;;;;;;;-5.11;100.00;93918.47;5051901;28;20571;-87
2022/01/12 09:25:33;;;;;;;18.38;8.65;;;;;;;-5.09;100.00;93953.44;5051752;28;20053;-86
2022/01/12 09:28:04;;;;;;;9.10;5.38;;;;;;;-5.00;100.00;93952.06;5051889;28;20147;-85
2022/01/12 09:30:31;;;;;;;34.13;16.20;;;;;;;-5.08;100.00;93937.50;5051273;28;20479;-89
2022/01/12 09:33:00;;;;;;;34.08;16.42;;;;;;;-5.64;100.00;93835.78;5051599;28;20498;-89
2022/01/12 09:35:28;;;;;;;14.77;7.88;;;;;;;-5.09;100.00;93945.94;5052093;28;20053;-84
2022/01/12 09:37:56;;;;;;;54.60;23.63;;;;;;;-4.78;100.00;93963.25;5051908;28;20132;-88
2022/01/12 09:40:39;;;;;;;27.33;13.85;;;;;;;-5.35;100.00;93890.75;5051658;28;20052;-86
2022/01/12 09:43:07;;;;;;;25.92;13.20;;;;;;;-4.71;100.00;93955.22;5052006;28;20047;-82
2022/01/12 09:45:34;;;;;;;11.27;6.20;;;;;;;-5.03;100.00;93945.53;5051242;28;20056;-84
2022/01/12 09:48:01;;;;;;;20.48;9.45;;;;;;;-5.11;100.00;93920.16;5051642;28;20053;-85
2022/01/12 09:50:30;;;;;;;35.70;16.15;;;;;;;-4.85;100.00;93962.81;5051481;28;20045;-88
2022/01/12 09:53:09;;;;;;;;;;;;;;;;;;;;;
2022/01/12 09:55:40;;;;;;;31.63;13.50;;;;;;;-4.70;100.00;93966.88;5051035;28;20057;-82
2022/01/12 09:58:10;;;;;;;20.42;9.82;;;;;;;-4.77;100.00;93945.56;5050748;28;20385;-87
2022/01/12 10:03:37;;;;;;;11.32;6.78;;;;;;;-4.59;100.00;93933.56;5050707;28;20110;-89
2022/01/12 10:06:28;;;;;;;;;;;;;;;;;;;;;
2022/01/12 10:09:12;;;;;;;;;;;;;;;;;;;;;
2022/01/12 10:15:50;;;;;;;16.95;10.15;;;;;;;-5.01;100.00;93857.72;4963978;28;20061;-88
2022/01/12 10:54:11;;;;;;;9.45;5.35;;;;;;;-4.75;100.00;93917.91;4970941;28;20050;-88
2022/01/12 11:00:43;;;;;;;18.20;10.88;;;;;;;-5.34;100.00;93813.94;4901438;29;20055;-87
2022/01/12 11:03:44;;;;;;;12.25;7.55;;;;;;;-5.23;100.00;93831.59;4893401;29;20044;-88
2022/01/12 11:09:33;;;;;;;16.33;9.20;;;;;;;-4.35;100.00;93950.41;4843518;28;20426;-88
2022/01/12 11:12:01;;;;;;;12.35;8.50;;;;;;;-4.39;100.00;93946.53;4996936;28;20531;-87
2022/01/12 11:14:36;;;;;;;9.82;6.93;;;;;;;-4.37;100.00;93942.22;5032623;28;20057;-89
2022/01/12 11:17:04;;;;;;;10.07;6.78;;;;;;;-4.12;100.00;93944.81;5030380;28;20542;-89
2022/01/12 11:19:33;;;;;;;13.00;10.02;;;;;;;-4.29;100.00;93956.75;5030311;28;20058;-91
2022/01/12 11:22:13;;;;;;;9.98;6.47;;;;;;;-4.43;100.00;93958.44;5030306;28;20054;-89
2022/01/12 11:24:40;;;;;;;8.60;5.65;;;;;;;-4.41;100.00;93953.34;5030218;28;20050;-88
2022/01/12 11:27:21;;;;;;;13.02;8.50;;;;;;;-4.61;100.00;93929.56;5030247;28;20527;-86
2022/01/12 11:30:04;;;;;;;12.27;7.65;;;;;;;-4.29;100.00;93956.75;5039752;28;20068;-89
2022/01/12 11:32:48;;;;;;;11.77;7.10;;;;;;;-4.34;100.00;93962.09;5050657;28;20511;-90
2022/01/12 11:35:39;;;;;;;9.60;6.25;;;;;;;-5.45;100.00;93812.91;5050893;28;20048;-87
2022/01/12 11:39:02;;;;;;;7.60;5.25;;;;;;;-5.59;100.00;93825.47;5041982;28;20086;-88
2022/01/12 11:41:32;;;;;;;10.30;7.32;;;;;;;-4.43;100.00;93960.94;5046640;28;20055;-87
2022/01/12 11:47:31;;;;;;;;;;;;;;;;;;;;;
2022/01/12 11:50:00;;;;;;;7.95;4.97;;;;;;;-4.41;100.00;93972.63;5029936;28;20049;-86
2022/01/12 11:52:31;;;;;;;7.68;5.20;;;;;;;-4.84;100.00;93959.41;5036037;28;20041;-87
2022/01/12 11:55:10;;;;;;;9.05;5.63;;;;;;;-4.59;100.00;93971.19;5051822;28;20049;-87
2022/01/12 11:57:41;;;;;;;12.45;8.20;;;;;;;-4.38;100.00;93969.88;5052931;28;20090;-89
2022/01/12 12:00:12;;;;;;;8.95;6.28;;;;;;;-4.63;100.00;93931.38;5052569;28;20049;-88
2022/01/12 12:02:41;;;;;;;9.02;5.68;;;;;;;-4.20;100.00;93981.25;5053096;28;20055;-88
2022/01/12 12:05:11;;;;;;;7.95;5.32;;;;;;;-4.44;100.00;93973.63;5053256;28;20411;-89
2022/01/12 12:07:47;;;;;;;8.25;5.18;;;;;;;-4.23;100.00;93983.94;5053401;28;20057;-87
2022/01/12 12:10:17;;;;;;;7.93;5.03;;;;;;;-4.33;100.00;93981.25;5053436;28;20049;-88
2022/01/12 12:12:44;;;;;;;10.90;6.20;;;;;;;-4.13;100.00;93989.16;5050458;28;20053;-88
2022/01/12 12:15:30;;;;;;;;;;;;;;;;;;;;;
2022/01/12 12:18:15;;;;;;;8.00;6.00;;;;;;;-4.12;100.00;93993.25;5054157;28;20049;-91
2022/01/12 12:20:50;;;;;;;16.10;9.57;;;;;;;-4.06;99.91;93989.56;5053263;28;20569;-89
2022/01/12 12:23:28;;;;;;;;;;;;;;;-4.08;99.94;93987.16;5053854;28;20068;-88
2022/01/12 12:26:07;;;;;;;12.15;8.10;;;;;;;-4.18;99.34;93986.97;5053664;28;19960;-91
2022/01/12 12:28:43;;;;;;;8.98;5.43;;;;;;;-4.19;99.92;93987.06;5054479;28;20048;-86
2022/01/12 12:31:10;;;;;;;54.67;26.95;;;;;;;-4.09;100.00;93982.22;5053226;28;20052;-89
2022/01/12 12:33:37;;;;;;;33.25;19.00;;;;;;;-3.95;99.66;93986.34;5054460;28;20458;-89
2022/01/12 12:36:15;;;;;;;124.75;55.20;;;;;;;-4.08;99.16;93996.41;5053622;28;20049;-88
2022/01/12 12:38:44;;;;;;;94.47;41.55;;;;;;;-4.22;100.00;93947.13;5055381;28;20048;-88
2022/01/12 12:41:13;;;;;;;47.42;22.88;;;;;;;-4.10;98.93;93993.16;5051836;28;20411;-88
2022/01/12 12:43:40;;;;;;;49.50;20.65;;;;;;;-3.94;100.00;93982.94;5050950;28;20045;-88
2022/01/12 12:46:17;;;;;;;145.52;52.53;;;;;;;-4.00;99.75;93960.75;5050487;28;20056;-89
2022/01/12 12:48:46;;;;;;;109.68;40.60;;;;;;;-3.78;99.13;93982.72;5046986;28;20404;-86
2022/01/12 12:51:16;;;;;;;220.80;88.68;;;;;;;-3.78;99.00;93991.06;5049063;28;20553;-85
2022/01/12 12:53:47;;;;;;;33.20;16.02;;;;;;;-3.98;99.64;93986.56;5048213;28;20099;-88
2022/01/12 12:56:16;;;;;;;19.58;9.85;;;;;;;-4.16;98.85;93977.63;5054799;28;20396;-85
2022/01/12 12:58:49;;;;;;;14.32;7.18;;;;;;;-4.34;99.80;93984.66;5051503;28;20048;-87
2022/01/12 13:01:17;;;;;;;45.80;20.58;;;;;;;-4.16;100.00;93981.84;5049573;28;20442;-87
2022/01/12 13:03:49;;;;;;;101.82;38.35;;;;;;;-4.26;99.01;93978.34;5049419;28;20482;-85
2022/01/12 13:06:27;;;;;;;75.47;32.08;;;;;;;-4.39;99.92;93971.63;5048749;28;20503;-86
2022/01/12 13:08:54;;;;;;;40.35;18.67;;;;;;;-4.15;99.15;93988.47;5047249;28;20052;-84
2022/01/12 13:11:27;;;;;;;13.38;7.55;;;;;;;-4.06;99.58;93999.59;5048532;28;20053;-85
2022/01/12 13:13:58;;;;;;;28.40;14.27;;;;;;;-4.34;97.73;93983.84;5048522;28;20077;-85
2022/01/12 13:16:27;;;;;;;36.50;16.02;;;;;;;-4.35;97.72;93997.28;5048845;28;20545;-85
2022/01/12 13:19:05;;;;;;;111.18;47.05;;;;;;;-4.45;98.62;93975.31;5050912;28;20045;-86
2022/01/12 13:21:34;;;;;;;63.13;26.90;;;;;;;-4.67;98.35;93967.56;5051069;28;20053;-86
2022/01/12 13:24:01;;;;;;;12.15;7.18;;;;;;;-4.81;99.29;93951.72;5049296;28;20175;-90
2022/01/12 13:26:34;;;;;;;42.72;20.17;;;;;;;-4.38;100.00;93983.25;5048540;28;20055;-84
2022/01/12 13:29:09;;;;;;;27.83;12.77;;;;;;;-4.37;99.49;93997.38;5050183;28;20567;-86
2022/01/12 13:31:36;;;;;;;10.63;6.53;;;;;;;-4.43;99.21;93990.25;5047954;28;20053;-84
2022/01/12 13:34:05;;;;;;;13.48;7.70;;;;;;;-4.52;99.48;93975.78;5050143;28;20049;-83
2022/01/12 13:36:42;;;;;;;65.65;30.92;;;;;;;-4.64;99.35;93945.59;5049225;28;20494;-85
2022/01/12 13:39:14;;;;;;;28.20;15.75;;;;;;;-4.58;99.54;93961.97;5049262;28;20131;-86
2022/01/12 13:41:42;;;;;;;28.33;15.60;;;;;;;-4.40;100.00;93997.56;5050770;28;20484;-85
2022/01/12 13:44:16;;;;;;;20.15;11.27;;;;;;;-4.35;99.78;93997.28;5051468;28;20506;-84
2022/01/12 13:46:52;;;;;;;24.90;14.15;;;;;;;-4.31;100.00;94008.72;5049456;28;20149;-88
2022/01/12 13:49:22;;;;;;;18.77;11.23;;;;;;;-4.37;99.68;94014.13;5046883;28;20144;-85
2022/01/12 13:51:59;;;;;;;52.40;25.98;;;;;;;-4.49;100.00;94020.75;5049149;28;20132;-85
2022/01/12 13:54:30;;;;;;;11.90;7.35;;;;;;;-4.52;99.97;94014.22;5047548;28;20099;-86
2022/01/12 13:56:59;;;;;;;14.98;9.80;;;;;;;-4.66;100.00;94007.56;5039086;28;20049;-86
2022/01/12 13:59:28;;;;;;;12.82;8.77;;;;;;;-4.52;99.27;94023.44;5030349;28;20057;-85
2022/01/12 14:01:56;;;;;;;38.97;18.63;;;;;;;-4.74;100.00;94004.72;5043673;28;20528;-86
2022/01/12 14:04:32;;;;;;;13.05;8.85;;;;;;;-4.64;100.00;93999.97;5048543;28;20041;-84
2022/01/12 14:07:04;;;;;;;24.85;12.68;;;;;;;-4.54;100.00;94016.00;5053640;28;20052;-85
2022/01/12 14:09:35;;;;;;;11.50;6.78;;;;;;;-4.72;99.14;94028.81;5048320;28;20447;-85
2022/01/12 14:12:13;;;;;;;33.55;18.50;;;;;;;-4.73;99.03;94026.38;5049820;28;20044;-85
2022/01/12 14:15:03;;;;;;;16.05;9.40;;;;;;;-4.85;100.00;94011.22;5050522;28;20049;-84